sensor_id;sensor_type;location;lat;lon;timestamp;P1;durP1;ratioP1;P2;durP2;ratioP2
40116;SDS011;25829;50.228;18.936;2023-12-04T00:01:51;31.40;;;17.00;;
40116;SDS011;25829;50.228;18.936;2023-12-04T00:04:58;29.63;;;16.60;;
40116;SDS011;25829;50.228;18.936;2023-12-04T00:08:06;28.43;;;14.93;;
40116;SDS011;25829;50.228;18.936;2023-12-04T00:11:07;31.97;;;17.37;;
40116;SDS011;25829;50.228;18.936;2023-12-04T00:14:09;31.40;;;16.00;;
40116;SDS011;25829;50.228;18.936;2023-12-04T00:17:18;27.13;;;14.80;;
40116;SDS011;25829;50.228;18.936;2023-12-04T00:20:19;30.37;;;15.20;;
40116;SDS011;25829;50.228;18.936;2023-12-04T00:23:28;28.80;;;14.63;;
40116;SDS011;25829;50.228;18.936;2023-12-04T00:26:29;29.63;;;16.03;;
40116;SDS011;25829;50.228;18.936;2023-12-04T00:29:33;38.63;;;18.60;;
40116;SDS011;25829;50.228;18.936;2023-12-04T00:32:34;29.80;;;16.67;;
40116;SDS011;25829;50.228;18.936;2023-12-04T00:35:43;26.37;;;16.10;;
40116;SDS011;25829;50.228;18.936;2023-12-04T00:38:44;28.40;;;15.13;;
40116;SDS011;25829;50.228;18.936;2023-12-04T00:41:48;23.60;;;13.47;;
40116;SDS011;25829;50.228;18.936;2023-12-04T00:44:52;22.73;;;12.80;;
40116;SDS011;25829;50.228;18.936;2023-12-04T00:51:42;25.87;;;14.13;;
40116;SDS011;25829;50.228;18.936;2023-12-04T00:54:50;26.03;;;14.37;;
40116;SDS011;25829;50.228;18.936;2023-12-04T00:58:03;24.33;;;12.93;;
40116;SDS011;25829;50.228;18.936;2023-12-04T01:01:13;21.57;;;13.13;;
40116;SDS011;25829;50.228;18.936;2023-12-04T01:04:14;19.93;;;12.30;;
40116;SDS011;25829;50.228;18.936;2023-12-04T01:07:15;19.00;;;12.60;;
40116;SDS011;25829;50.228;18.936;2023-12-04T01:10:23;20.70;;;12.13;;
40116;SDS011;25829;50.228;18.936;2023-12-04T01:13:44;25.03;;;13.50;;
40116;SDS011;25829;50.228;18.936;2023-12-04T01:16:57;23.57;;;13.10;;
40116;SDS011;25829;50.228;18.936;2023-12-04T01:19:57;25.97;;;13.97;;
40116;SDS011;25829;50.228;18.936;2023-12-04T01:23:22;24.90;;;13.57;;
40116;SDS011;25829;50.228;18.936;2023-12-04T01:26:39;21.53;;;13.30;;
40116;SDS011;25829;50.228;18.936;2023-12-04T01:29:48;24.70;;;14.17;;
40116;SDS011;25829;50.228;18.936;2023-12-04T01:32:55;20.83;;;13.57;;
40116;SDS011;25829;50.228;18.936;2023-12-04T01:36:14;23.17;;;14.13;;
40116;SDS011;25829;50.228;18.936;2023-12-04T01:39:41;24.93;;;13.43;;
40116;SDS011;25829;50.228;18.936;2023-12-04T01:43:03;21.60;;;13.67;;
40116;SDS011;25829;50.228;18.936;2023-12-04T01:46:18;27.47;;;14.30;;
40116;SDS011;25829;50.228;18.936;2023-12-04T01:49:19;22.80;;;13.80;;
40116;SDS011;25829;50.228;18.936;2023-12-04T01:52:32;26.07;;;15.57;;
40116;SDS011;25829;50.228;18.936;2023-12-04T01:55:46;26.40;;;14.87;;
40116;SDS011;25829;50.228;18.936;2023-12-04T01:59:21;32.47;;;19.10;;
40116;SDS011;25829;50.228;18.936;2023-12-04T02:11:49;37.07;;;24.07;;
40116;SDS011;25829;50.228;18.936;2023-12-04T02:22:19;22.37;;;15.93;;
40116;SDS011;25829;50.228;18.936;2023-12-04T02:25:29;22.70;;;15.43;;
40116;SDS011;25829;50.228;18.936;2023-12-04T02:35:45;36.83;;;22.53;;
40116;SDS011;25829;50.228;18.936;2023-12-04T02:44:10;29.10;;;16.67;;
40116;SDS011;25829;50.228;18.936;2023-12-04T02:47:14;29.80;;;16.57;;
40116;SDS011;25829;50.228;18.936;2023-12-04T02:50:20;24.90;;;15.33;;
40116;SDS011;25829;50.228;18.936;2023-12-04T03:04:53;30.53;;;16.70;;
40116;SDS011;25829;50.228;18.936;2023-12-04T03:07:57;29.33;;;15.97;;
40116;SDS011;25829;50.228;18.936;2023-12-04T03:11:15;21.90;;;14.23;;
40116;SDS011;25829;50.228;18.936;2023-12-04T03:18:41;24.67;;;15.10;;
40116;SDS011;25829;50.228;18.936;2023-12-04T03:23:11;28.90;;;15.63;;
40116;SDS011;25829;50.228;18.936;2023-12-04T03:30:52;30.27;;;18.03;;
40116;SDS011;25829;50.228;18.936;2023-12-04T03:37:58;27.03;;;18.47;;
40116;SDS011;25829;50.228;18.936;2023-12-04T03:49:12;58.00;;;27.57;;
40116;SDS011;25829;50.228;18.936;2023-12-04T03:52:44;30.27;;;17.17;;
40116;SDS011;25829;50.228;18.936;2023-12-04T03:56:50;26.57;;;15.50;;
40116;SDS011;25829;50.228;18.936;2023-12-04T03:59:59;24.50;;;14.37;;
40116;SDS011;25829;50.228;18.936;2023-12-04T04:07:28;24.33;;;14.87;;
40116;SDS011;25829;50.228;18.936;2023-12-04T04:10:49;21.30;;;12.77;;
40116;SDS011;25829;50.228;18.936;2023-12-04T04:14:18;23.43;;;13.47;;
40116;SDS011;25829;50.228;18.936;2023-12-04T04:17:44;21.77;;;13.17;;
40116;SDS011;25829;50.228;18.936;2023-12-04T04:21:43;23.30;;;12.63;;
40116;SDS011;25829;50.228;18.936;2023-12-04T04:25:06;22.07;;;14.10;;
40116;SDS011;25829;50.228;18.936;2023-12-04T04:28:50;19.70;;;11.83;;
40116;SDS011;25829;50.228;18.936;2023-12-04T04:40:03;21.93;;;12.70;;
40116;SDS011;25829;50.228;18.936;2023-12-04T04:43:41;21.10;;;13.53;;
40116;SDS011;25829;50.228;18.936;2023-12-04T04:46:48;22.60;;;12.93;;
40116;SDS011;25829;50.228;18.936;2023-12-04T04:57:41;22.63;;;13.70;;
40116;SDS011;25829;50.228;18.936;2023-12-04T05:01:09;25.87;;;14.70;;
40116;SDS011;25829;50.228;18.936;2023-12-04T05:04:13;21.23;;;13.07;;
40116;SDS011;25829;50.228;18.936;2023-12-04T05:07:23;26.53;;;16.63;;
40116;SDS011;25829;50.228;18.936;2023-12-04T05:19:16;20.57;;;13.60;;
40116;SDS011;25829;50.228;18.936;2023-12-04T05:22:21;20.53;;;13.27;;
40116;SDS011;25829;50.228;18.936;2023-12-04T05:29:42;22.30;;;14.67;;
40116;SDS011;25829;50.228;18.936;2023-12-04T05:35:48;24.70;;;15.13;;
40116;SDS011;25829;50.228;18.936;2023-12-04T05:38:52;25.87;;;16.57;;
40116;SDS011;25829;50.228;18.936;2023-12-04T05:41:54;31.53;;;15.90;;
40116;SDS011;25829;50.228;18.936;2023-12-04T05:44:57;24.43;;;14.47;;
40116;SDS011;25829;50.228;18.936;2023-12-04T05:47:58;26.07;;;15.23;;
40116;SDS011;25829;50.228;18.936;2023-12-04T05:51:06;22.93;;;12.70;;
40116;SDS011;25829;50.228;18.936;2023-12-04T05:54:33;28.03;;;15.37;;
40116;SDS011;25829;50.228;18.936;2023-12-04T05:57:37;24.90;;;15.13;;
40116;SDS011;25829;50.228;18.936;2023-12-04T06:00:39;24.83;;;14.83;;
40116;SDS011;25829;50.228;18.936;2023-12-04T06:03:41;20.13;;;14.93;;
40116;SDS011;25829;50.228;18.936;2023-12-04T06:06:47;22.80;;;15.40;;
40116;SDS011;25829;50.228;18.936;2023-12-04T06:09:54;21.40;;;13.37;;
40116;SDS011;25829;50.228;18.936;2023-12-04T06:12:58;57.23;;;18.50;;
40116;SDS011;25829;50.228;18.936;2023-12-04T06:16:17;21.53;;;14.37;;
40116;SDS011;25829;50.228;18.936;2023-12-04T06:19:18;23.37;;;14.17;;
40116;SDS011;25829;50.228;18.936;2023-12-04T06:22:19;24.27;;;14.90;;
40116;SDS011;25829;50.228;18.936;2023-12-04T06:25:22;27.67;;;16.40;;
40116;SDS011;25829;50.228;18.936;2023-12-04T06:28:27;24.23;;;14.47;;
40116;SDS011;25829;50.228;18.936;2023-12-04T06:31:42;22.80;;;15.00;;
40116;SDS011;25829;50.228;18.936;2023-12-04T06:35:10;24.33;;;14.20;;
40116;SDS011;25829;50.228;18.936;2023-12-04T06:38:31;30.67;;;21.07;;
40116;SDS011;25829;50.228;18.936;2023-12-04T06:41:55;43.17;;;28.07;;
40116;SDS011;25829;50.228;18.936;2023-12-04T06:45:32;95.03;;;46.43;;
40116;SDS011;25829;50.228;18.936;2023-12-04T06:48:34;73.77;;;38.73;;
40116;SDS011;25829;50.228;18.936;2023-12-04T06:51:41;97.03;;;47.67;;
40116;SDS011;25829;50.228;18.936;2023-12-04T06:58:55;39.10;;;23.77;;
40116;SDS011;25829;50.228;18.936;2023-12-04T07:01:56;27.67;;;16.90;;
40116;SDS011;25829;50.228;18.936;2023-12-04T07:05:02;27.20;;;17.40;;
40116;SDS011;25829;50.228;18.936;2023-12-04T07:08:06;29.57;;;19.73;;
40116;SDS011;25829;50.228;18.936;2023-12-04T07:11:08;30.23;;;21.70;;
40116;SDS011;25829;50.228;18.936;2023-12-04T07:14:09;31.40;;;21.30;;
40116;SDS011;25829;50.228;18.936;2023-12-04T07:28:28;29.37;;;20.77;;
40116;SDS011;25829;50.228;18.936;2023-12-04T07:34:57;32.33;;;23.43;;
40116;SDS011;25829;50.228;18.936;2023-12-04T07:37:59;30.10;;;20.90;;
40116;SDS011;25829;50.228;18.936;2023-12-04T07:40:59;26.10;;;17.60;;
40116;SDS011;25829;50.228;18.936;2023-12-04T07:44:00;28.00;;;20.00;;
40116;SDS011;25829;50.228;18.936;2023-12-04T07:47:07;32.03;;;18.83;;
40116;SDS011;25829;50.228;18.936;2023-12-04T07:50:08;33.67;;;20.30;;
40116;SDS011;25829;50.228;18.936;2023-12-04T07:53:09;34.33;;;21.87;;
40116;SDS011;25829;50.228;18.936;2023-12-04T07:56:12;34.43;;;21.17;;
40116;SDS011;25829;50.228;18.936;2023-12-04T07:59:13;34.03;;;20.40;;
40116;SDS011;25829;50.228;18.936;2023-12-04T08:02:13;43.33;;;24.93;;
40116;SDS011;25829;50.228;18.936;2023-12-04T08:05:14;35.57;;;20.97;;
40116;SDS011;25829;50.228;18.936;2023-12-04T08:08:15;35.33;;;21.97;;
40116;SDS011;25829;50.228;18.936;2023-12-04T08:11:16;39.13;;;23.27;;
40116;SDS011;25829;50.228;18.936;2023-12-04T08:14:17;38.90;;;24.80;;
40116;SDS011;25829;50.228;18.936;2023-12-04T08:17:19;40.50;;;24.53;;
40116;SDS011;25829;50.228;18.936;2023-12-04T08:20:20;34.97;;;19.37;;
40116;SDS011;25829;50.228;18.936;2023-12-04T08:23:22;34.20;;;21.30;;
40116;SDS011;25829;50.228;18.936;2023-12-04T08:26:24;31.73;;;18.30;;
40116;SDS011;25829;50.228;18.936;2023-12-04T08:29:28;33.43;;;18.83;;
40116;SDS011;25829;50.228;18.936;2023-12-04T08:32:29;27.83;;;17.93;;
40116;SDS011;25829;50.228;18.936;2023-12-04T08:35:29;28.00;;;17.20;;
40116;SDS011;25829;50.228;18.936;2023-12-04T08:38:30;25.10;;;17.43;;
40116;SDS011;25829;50.228;18.936;2023-12-04T08:41:31;28.60;;;17.03;;
40116;SDS011;25829;50.228;18.936;2023-12-04T08:44:33;26.83;;;16.63;;
40116;SDS011;25829;50.228;18.936;2023-12-04T08:47:34;30.10;;;17.77;;
40116;SDS011;25829;50.228;18.936;2023-12-04T08:50:35;27.20;;;16.67;;
40116;SDS011;25829;50.228;18.936;2023-12-04T08:53:37;29.27;;;19.23;;
40116;SDS011;25829;50.228;18.936;2023-12-04T08:56:37;27.47;;;17.73;;
40116;SDS011;25829;50.228;18.936;2023-12-04T08:59:38;27.43;;;16.83;;
40116;SDS011;25829;50.228;18.936;2023-12-04T09:02:48;21.03;;;13.20;;
40116;SDS011;25829;50.228;18.936;2023-12-04T09:06:00;17.60;;;11.07;;
40116;SDS011;25829;50.228;18.936;2023-12-04T09:09:01;16.63;;;11.30;;
40116;SDS011;25829;50.228;18.936;2023-12-04T09:12:03;24.93;;;16.37;;
40116;SDS011;25829;50.228;18.936;2023-12-04T09:15:04;18.47;;;12.13;;
40116;SDS011;25829;50.228;18.936;2023-12-04T09:18:06;24.13;;;14.07;;
40116;SDS011;25829;50.228;18.936;2023-12-04T09:21:06;18.90;;;12.57;;
40116;SDS011;25829;50.228;18.936;2023-12-04T09:24:12;20.00;;;13.30;;
40116;SDS011;25829;50.228;18.936;2023-12-04T09:27:14;19.00;;;12.47;;
40116;SDS011;25829;50.228;18.936;2023-12-04T09:30:14;25.57;;;14.07;;
40116;SDS011;25829;50.228;18.936;2023-12-04T09:33:15;19.77;;;11.80;;
40116;SDS011;25829;50.228;18.936;2023-12-04T09:36:19;20.53;;;13.20;;
40116;SDS011;25829;50.228;18.936;2023-12-04T09:39:26;19.63;;;11.57;;
40116;SDS011;25829;50.228;18.936;2023-12-04T09:42:27;22.00;;;14.00;;
40116;SDS011;25829;50.228;18.936;2023-12-04T09:48:57;23.10;;;13.77;;
40116;SDS011;25829;50.228;18.936;2023-12-04T09:52:10;19.67;;;12.80;;
40116;SDS011;25829;50.228;18.936;2023-12-04T09:55:12;17.27;;;11.00;;
40116;SDS011;25829;50.228;18.936;2023-12-04T09:58:13;17.70;;;12.37;;
40116;SDS011;25829;50.228;18.936;2023-12-04T10:01:15;19.20;;;12.37;;
40116;SDS011;25829;50.228;18.936;2023-12-04T10:08:52;21.05;;;12.10;;
40116;SDS011;25829;50.228;18.936;2023-12-04T10:12:05;20.53;;;11.80;;
40116;SDS011;25829;50.228;18.936;2023-12-04T10:15:10;19.87;;;11.97;;
40116;SDS011;25829;50.228;18.936;2023-12-04T10:18:28;20.43;;;11.90;;
40116;SDS011;25829;50.228;18.936;2023-12-04T10:21:33;18.93;;;12.37;;
40116;SDS011;25829;50.228;18.936;2023-12-04T10:24:35;19.23;;;12.57;;
40116;SDS011;25829;50.228;18.936;2023-12-04T10:27:37;21.23;;;13.57;;
40116;SDS011;25829;50.228;18.936;2023-12-04T10:30:38;22.03;;;14.17;;
40116;SDS011;25829;50.228;18.936;2023-12-04T10:33:39;21.67;;;13.47;;
40116;SDS011;25829;50.228;18.936;2023-12-04T10:36:42;22.13;;;13.70;;
40116;SDS011;25829;50.228;18.936;2023-12-04T10:39:49;22.97;;;13.27;;
40116;SDS011;25829;50.228;18.936;2023-12-04T10:42:57;20.87;;;13.17;;
40116;SDS011;25829;50.228;18.936;2023-12-04T10:46:33;24.87;;;13.97;;
40116;SDS011;25829;50.228;18.936;2023-12-04T10:49:39;20.03;;;12.53;;
40116;SDS011;25829;50.228;18.936;2023-12-04T10:52:39;23.47;;;13.87;;
40116;SDS011;25829;50.228;18.936;2023-12-04T10:55:42;23.33;;;13.53;;
40116;SDS011;25829;50.228;18.936;2023-12-04T10:58:45;22.57;;;13.83;;
40116;SDS011;25829;50.228;18.936;2023-12-04T11:01:50;22.80;;;14.30;;
40116;SDS011;25829;50.228;18.936;2023-12-04T11:04:55;23.07;;;14.40;;
40116;SDS011;25829;50.228;18.936;2023-12-04T11:08:02;22.37;;;14.63;;
40116;SDS011;25829;50.228;18.936;2023-12-04T11:11:05;19.33;;;11.63;;
40116;SDS011;25829;50.228;18.936;2023-12-04T11:14:09;19.70;;;12.57;;
40116;SDS011;25829;50.228;18.936;2023-12-04T11:17:15;18.97;;;12.27;;
40116;SDS011;25829;50.228;18.936;2023-12-04T11:20:18;20.47;;;12.70;;
40116;SDS011;25829;50.228;18.936;2023-12-04T11:23:22;21.63;;;13.40;;
40116;SDS011;25829;50.228;18.936;2023-12-04T11:26:24;17.60;;;11.70;;
40116;SDS011;25829;50.228;18.936;2023-12-04T11:29:26;17.23;;;11.57;;
40116;SDS011;25829;50.228;18.936;2023-12-04T11:32:28;19.93;;;11.97;;
40116;SDS011;25829;50.228;18.936;2023-12-04T11:35:30;18.73;;;10.70;;
40116;SDS011;25829;50.228;18.936;2023-12-04T11:38:30;19.93;;;11.13;;
40116;SDS011;25829;50.228;18.936;2023-12-04T11:41:31;16.53;;;10.13;;
40116;SDS011;25829;50.228;18.936;2023-12-04T11:44:35;21.17;;;12.10;;
40116;SDS011;25829;50.228;18.936;2023-12-04T11:47:48;21.53;;;12.63;;
40116;SDS011;25829;50.228;18.936;2023-12-04T11:50:52;21.57;;;13.83;;
40116;SDS011;25829;50.228;18.936;2023-12-04T11:53:57;17.17;;;10.90;;
40116;SDS011;25829;50.228;18.936;2023-12-04T12:00:12;20.53;;;12.47;;
40116;SDS011;25829;50.228;18.936;2023-12-04T12:03:23;22.40;;;13.87;;
40116;SDS011;25829;50.228;18.936;2023-12-04T12:06:25;22.57;;;13.60;;
40116;SDS011;25829;50.228;18.936;2023-12-04T12:09:26;18.10;;;12.20;;
40116;SDS011;25829;50.228;18.936;2023-12-04T12:12:28;24.27;;;14.40;;
40116;SDS011;25829;50.228;18.936;2023-12-04T12:15:32;23.30;;;13.20;;
40116;SDS011;25829;50.228;18.936;2023-12-04T12:18:36;22.13;;;14.13;;
40116;SDS011;25829;50.228;18.936;2023-12-04T12:21:37;18.73;;;12.00;;
40116;SDS011;25829;50.228;18.936;2023-12-04T12:24:39;20.00;;;11.57;;
40116;SDS011;25829;50.228;18.936;2023-12-04T12:27:40;19.03;;;10.47;;
40116;SDS011;25829;50.228;18.936;2023-12-04T12:30:41;18.20;;;11.60;;
40116;SDS011;25829;50.228;18.936;2023-12-04T12:33:42;18.80;;;10.50;;
40116;SDS011;25829;50.228;18.936;2023-12-04T12:36:43;28.23;;;15.13;;
40116;SDS011;25829;50.228;18.936;2023-12-04T12:39:44;27.87;;;15.03;;
40116;SDS011;25829;50.228;18.936;2023-12-04T12:42:45;22.97;;;13.80;;
40116;SDS011;25829;50.228;18.936;2023-12-04T12:45:46;24.13;;;13.47;;
40116;SDS011;25829;50.228;18.936;2023-12-04T12:48:50;22.03;;;12.13;;
40116;SDS011;25829;50.228;18.936;2023-12-04T12:51:51;17.10;;;11.47;;
40116;SDS011;25829;50.228;18.936;2023-12-04T12:54:55;23.43;;;12.30;;
40116;SDS011;25829;50.228;18.936;2023-12-04T12:57:56;30.53;;;14.07;;
40116;SDS011;25829;50.228;18.936;2023-12-04T13:00:57;21.70;;;11.73;;
40116;SDS011;25829;50.228;18.936;2023-12-04T13:03:59;30.23;;;15.60;;
40116;SDS011;25829;50.228;18.936;2023-12-04T13:07:01;43.87;;;18.50;;
40116;SDS011;25829;50.228;18.936;2023-12-04T13:10:03;30.80;;;15.50;;
40116;SDS011;25829;50.228;18.936;2023-12-04T13:13:09;25.37;;;14.03;;
40116;SDS011;25829;50.228;18.936;2023-12-04T13:16:13;24.97;;;14.67;;
40116;SDS011;25829;50.228;18.936;2023-12-04T13:19:14;22.10;;;13.10;;
40116;SDS011;25829;50.228;18.936;2023-12-04T13:22:17;20.43;;;12.83;;
40116;SDS011;25829;50.228;18.936;2023-12-04T13:25:18;24.47;;;13.83;;
40116;SDS011;25829;50.228;18.936;2023-12-04T13:28:19;23.47;;;13.57;;
40116;SDS011;25829;50.228;18.936;2023-12-04T13:31:20;27.17;;;13.97;;
40116;SDS011;25829;50.228;18.936;2023-12-04T13:34:21;27.53;;;15.87;;
40116;SDS011;25829;50.228;18.936;2023-12-04T13:37:25;20.47;;;14.37;;
40116;SDS011;25829;50.228;18.936;2023-12-04T13:40:28;30.37;;;16.23;;
40116;SDS011;25829;50.228;18.936;2023-12-04T13:43:50;27.40;;;15.40;;
40116;SDS011;25829;50.228;18.936;2023-12-04T13:46:52;24.53;;;14.97;;
40116;SDS011;25829;50.228;18.936;2023-12-04T13:49:52;26.50;;;15.83;;
40116;SDS011;25829;50.228;18.936;2023-12-04T13:52:53;26.67;;;16.17;;
40116;SDS011;25829;50.228;18.936;2023-12-04T13:55:57;26.90;;;14.70;;
40116;SDS011;25829;50.228;18.936;2023-12-04T13:59:01;25.60;;;15.20;;
40116;SDS011;25829;50.228;18.936;2023-12-04T14:02:04;26.87;;;16.37;;
40116;SDS011;25829;50.228;18.936;2023-12-04T14:05:10;26.33;;;16.50;;
40116;SDS011;25829;50.228;18.936;2023-12-04T14:08:15;23.57;;;15.37;;
40116;SDS011;25829;50.228;18.936;2023-12-04T14:11:16;26.00;;;15.47;;
40116;SDS011;25829;50.228;18.936;2023-12-04T14:14:17;31.30;;;15.87;;
40116;SDS011;25829;50.228;18.936;2023-12-04T14:17:18;27.20;;;14.63;;
40116;SDS011;25829;50.228;18.936;2023-12-04T14:20:19;26.57;;;15.37;;
40116;SDS011;25829;50.228;18.936;2023-12-04T14:23:21;27.33;;;15.80;;
40116;SDS011;25829;50.228;18.936;2023-12-04T14:26:22;28.47;;;15.47;;
40116;SDS011;25829;50.228;18.936;2023-12-04T14:29:23;24.93;;;14.93;;
40116;SDS011;25829;50.228;18.936;2023-12-04T14:32:24;25.80;;;14.47;;
40116;SDS011;25829;50.228;18.936;2023-12-04T14:35:24;23.97;;;14.57;;
40116;SDS011;25829;50.228;18.936;2023-12-04T14:38:25;30.03;;;15.37;;
40116;SDS011;25829;50.228;18.936;2023-12-04T14:41:26;24.73;;;14.00;;
40116;SDS011;25829;50.228;18.936;2023-12-04T14:44:27;25.30;;;15.27;;
40116;SDS011;25829;50.228;18.936;2023-12-04T14:47:28;23.50;;;15.20;;
40116;SDS011;25829;50.228;18.936;2023-12-04T14:50:28;22.43;;;14.07;;
40116;SDS011;25829;50.228;18.936;2023-12-04T14:53:29;23.57;;;14.83;;
40116;SDS011;25829;50.228;18.936;2023-12-04T14:56:41;21.17;;;13.07;;
40116;SDS011;25829;50.228;18.936;2023-12-04T14:59:58;23.43;;;14.03;;
40116;SDS011;25829;50.228;18.936;2023-12-04T15:03:33;23.03;;;14.60;;
40116;SDS011;25829;50.228;18.936;2023-12-04T15:06:52;23.20;;;14.33;;
40116;SDS011;25829;50.228;18.936;2023-12-04T15:10:12;24.40;;;14.50;;
40116;SDS011;25829;50.228;18.936;2023-12-04T15:13:48;25.80;;;14.27;;
40116;SDS011;25829;50.228;18.936;2023-12-04T15:16:56;21.73;;;12.90;;
40116;SDS011;25829;50.228;18.936;2023-12-04T15:20:17;22.97;;;14.30;;
40116;SDS011;25829;50.228;18.936;2023-12-04T15:23:32;27.40;;;15.10;;
40116;SDS011;25829;50.228;18.936;2023-12-04T15:26:33;29.53;;;16.80;;
40116;SDS011;25829;50.228;18.936;2023-12-04T15:29:34;28.80;;;15.07;;
40116;SDS011;25829;50.228;18.936;2023-12-04T15:32:34;23.67;;;15.03;;
40116;SDS011;25829;50.228;18.936;2023-12-04T15:35:35;27.57;;;15.27;;
40116;SDS011;25829;50.228;18.936;2023-12-04T15:38:37;22.10;;;14.70;;
40116;SDS011;25829;50.228;18.936;2023-12-04T15:41:38;29.40;;;14.43;;
40116;SDS011;25829;50.228;18.936;2023-12-04T15:44:39;26.03;;;16.83;;
40116;SDS011;25829;50.228;18.936;2023-12-04T15:47:39;28.03;;;16.40;;
40116;SDS011;25829;50.228;18.936;2023-12-04T15:50:40;27.53;;;17.33;;
40116;SDS011;25829;50.228;18.936;2023-12-04T15:53:41;24.80;;;16.03;;
40116;SDS011;25829;50.228;18.936;2023-12-04T15:56:42;26.67;;;15.37;;
40116;SDS011;25829;50.228;18.936;2023-12-04T15:59:43;24.70;;;15.20;;
40116;SDS011;25829;50.228;18.936;2023-12-04T16:02:45;23.10;;;15.30;;
40116;SDS011;25829;50.228;18.936;2023-12-04T16:05:46;24.77;;;14.10;;
40116;SDS011;25829;50.228;18.936;2023-12-04T16:08:47;24.97;;;15.43;;
40116;SDS011;25829;50.228;18.936;2023-12-04T16:11:48;24.80;;;15.60;;
40116;SDS011;25829;50.228;18.936;2023-12-04T16:14:50;22.93;;;13.43;;
40116;SDS011;25829;50.228;18.936;2023-12-04T16:17:51;23.07;;;14.47;;
40116;SDS011;25829;50.228;18.936;2023-12-04T16:20:52;20.47;;;13.23;;
40116;SDS011;25829;50.228;18.936;2023-12-04T16:27:19;20.73;;;13.53;;
40116;SDS011;25829;50.228;18.936;2023-12-04T16:30:22;21.97;;;13.23;;
40116;SDS011;25829;50.228;18.936;2023-12-04T16:33:29;18.43;;;10.77;;
40116;SDS011;25829;50.228;18.936;2023-12-04T16:36:30;21.97;;;12.47;;
40116;SDS011;25829;50.228;18.936;2023-12-04T16:39:51;20.13;;;11.70;;
40116;SDS011;25829;50.228;18.936;2023-12-04T16:42:52;20.83;;;12.10;;
40116;SDS011;25829;50.228;18.936;2023-12-04T16:45:56;16.50;;;11.57;;
40116;SDS011;25829;50.228;18.936;2023-12-04T16:49:03;19.80;;;11.10;;
40116;SDS011;25829;50.228;18.936;2023-12-04T16:52:11;24.07;;;13.40;;
40116;SDS011;25829;50.228;18.936;2023-12-04T16:55:18;22.63;;;11.93;;
40116;SDS011;25829;50.228;18.936;2023-12-04T16:58:21;18.73;;;12.30;;
40116;SDS011;25829;50.228;18.936;2023-12-04T17:01:22;22.00;;;12.13;;
40116;SDS011;25829;50.228;18.936;2023-12-04T17:04:35;16.20;;;10.27;;
40116;SDS011;25829;50.228;18.936;2023-12-04T17:07:39;22.77;;;11.70;;
40116;SDS011;25829;50.228;18.936;2023-12-04T17:10:48;18.97;;;11.63;;
40116;SDS011;25829;50.228;18.936;2023-12-04T17:13:49;20.10;;;11.90;;
40116;SDS011;25829;50.228;18.936;2023-12-04T17:16:50;20.00;;;10.83;;
40116;SDS011;25829;50.228;18.936;2023-12-04T17:19:50;18.33;;;10.77;;
40116;SDS011;25829;50.228;18.936;2023-12-04T17:23:00;16.90;;;10.90;;
40116;SDS011;25829;50.228;18.936;2023-12-04T17:29:03;15.93;;;10.70;;
40116;SDS011;25829;50.228;18.936;2023-12-04T17:35:41;19.00;;;11.57;;
40116;SDS011;25829;50.228;18.936;2023-12-04T17:38:42;20.27;;;11.87;;
40116;SDS011;25829;50.228;18.936;2023-12-04T17:41:44;20.53;;;10.70;;
40116;SDS011;25829;50.228;18.936;2023-12-04T17:44:48;18.13;;;11.43;;
40116;SDS011;25829;50.228;18.936;2023-12-04T17:47:52;16.20;;;10.57;;
40116;SDS011;25829;50.228;18.936;2023-12-04T17:50:52;17.60;;;10.60;;
40116;SDS011;25829;50.228;18.936;2023-12-04T17:54:06;19.03;;;11.70;;
40116;SDS011;25829;50.228;18.936;2023-12-04T18:00:56;21.27;;;11.77;;
40116;SDS011;25829;50.228;18.936;2023-12-04T18:03:57;18.83;;;11.47;;
40116;SDS011;25829;50.228;18.936;2023-12-04T18:06:58;20.47;;;11.80;;
40116;SDS011;25829;50.228;18.936;2023-12-04T18:10:01;17.53;;;12.10;;
40116;SDS011;25829;50.228;18.936;2023-12-04T18:13:02;17.70;;;11.87;;
40116;SDS011;25829;50.228;18.936;2023-12-04T18:16:03;18.90;;;11.90;;
40116;SDS011;25829;50.228;18.936;2023-12-04T18:19:04;19.33;;;12.07;;
40116;SDS011;25829;50.228;18.936;2023-12-04T18:22:05;17.80;;;11.63;;
40116;SDS011;25829;50.228;18.936;2023-12-04T18:25:06;20.37;;;12.33;;
40116;SDS011;25829;50.228;18.936;2023-12-04T18:28:07;22.37;;;12.37;;
40116;SDS011;25829;50.228;18.936;2023-12-04T18:31:10;27.13;;;14.00;;
40116;SDS011;25829;50.228;18.936;2023-12-04T18:34:13;23.40;;;12.47;;
40116;SDS011;25829;50.228;18.936;2023-12-04T18:37:20;22.47;;;12.37;;
40116;SDS011;25829;50.228;18.936;2023-12-04T18:40:23;22.03;;;12.33;;
40116;SDS011;25829;50.228;18.936;2023-12-04T18:43:25;21.80;;;12.53;;
40116;SDS011;25829;50.228;18.936;2023-12-04T18:46:26;23.50;;;13.30;;
40116;SDS011;25829;50.228;18.936;2023-12-04T18:49:29;24.93;;;13.57;;
40116;SDS011;25829;50.228;18.936;2023-12-04T18:52:35;25.90;;;13.80;;
40116;SDS011;25829;50.228;18.936;2023-12-04T18:55:36;27.60;;;15.00;;
40116;SDS011;25829;50.228;18.936;2023-12-04T18:58:38;22.03;;;13.97;;
40116;SDS011;25829;50.228;18.936;2023-12-04T19:01:39;25.33;;;13.33;;
40116;SDS011;25829;50.228;18.936;2023-12-04T19:04:40;26.53;;;14.30;;
40116;SDS011;25829;50.228;18.936;2023-12-04T19:07:41;21.23;;;13.63;;
40116;SDS011;25829;50.228;18.936;2023-12-04T19:10:42;25.47;;;14.80;;
40116;SDS011;25829;50.228;18.936;2023-12-04T19:13:44;25.57;;;14.00;;
40116;SDS011;25829;50.228;18.936;2023-12-04T19:16:45;26.97;;;15.53;;
40116;SDS011;25829;50.228;18.936;2023-12-04T19:19:45;28.10;;;16.43;;
40116;SDS011;25829;50.228;18.936;2023-12-04T19:22:46;31.83;;;16.30;;
40116;SDS011;25829;50.228;18.936;2023-12-04T19:25:47;30.87;;;16.70;;
40116;SDS011;25829;50.228;18.936;2023-12-04T19:28:48;27.37;;;16.90;;
40116;SDS011;25829;50.228;18.936;2023-12-04T19:31:48;27.93;;;15.70;;
40116;SDS011;25829;50.228;18.936;2023-12-04T19:34:49;22.10;;;15.30;;
40116;SDS011;25829;50.228;18.936;2023-12-04T19:37:51;28.20;;;14.43;;
40116;SDS011;25829;50.228;18.936;2023-12-04T19:40:51;29.57;;;15.87;;
40116;SDS011;25829;50.228;18.936;2023-12-04T19:43:52;26.00;;;15.13;;
40116;SDS011;25829;50.228;18.936;2023-12-04T19:46:53;23.60;;;13.47;;
40116;SDS011;25829;50.228;18.936;2023-12-04T19:49:54;28.60;;;15.33;;
40116;SDS011;25829;50.228;18.936;2023-12-04T19:52:55;26.83;;;15.53;;
40116;SDS011;25829;50.228;18.936;2023-12-04T19:55:56;27.97;;;16.40;;
40116;SDS011;25829;50.228;18.936;2023-12-04T19:58:56;22.83;;;14.83;;
40116;SDS011;25829;50.228;18.936;2023-12-04T20:01:57;28.20;;;15.80;;
40116;SDS011;25829;50.228;18.936;2023-12-04T20:04:58;26.93;;;16.47;;
40116;SDS011;25829;50.228;18.936;2023-12-04T20:07:59;23.97;;;14.67;;
40116;SDS011;25829;50.228;18.936;2023-12-04T20:12:20;25.10;;;15.60;;
40116;SDS011;25829;50.228;18.936;2023-12-04T20:15:21;26.77;;;14.37;;
40116;SDS011;25829;50.228;18.936;2023-12-04T20:18:22;28.50;;;14.13;;